Frankfort, MI

3:44 AM EDT on May 29, 2017 (GMT -0400)
Frankfort

Weather History for KFKS - October, 2013

Change the Weather History Date:

Saturday, October 12, 2013

  Actual Average (KMBL) Record (KMBL)
Temperature  
Mean Temperature 66 °F -  
Max Temperature 75 °F 60 °F 78 °F (1973)
Min Temperature 57 °F 42 °F 30 °F (1957)
Cooling Degree Days 1    
Growing Degree Days 16 (Base 50)    
Moisture  
Dew Point 52 °F    
Average Humidity 66    
Maximum Humidity 90    
Minimum Humidity 51    
Precipitation  
Precipitation 0.00 in - - ()
Sea Level Pressure  
Sea Level Pressure 29.99 in    
Wind  
Wind Speed 9 mph (South)    
Max Wind Speed 24 mph    
Max Gust Speed 33 mph    
Visibility 10 miles    
Events Rain    
Averages and records for this station are not official NWS values.
T = Trace of Precipitation, MM = Missing Value Source: NWS Daily Summary

Daily Weather History Graph

Daily Weather History Graph

Search for Another Location

Airport or City:

Trip Planner

Search our weather history database for the weather conditions in past years. The results will help you decide how hot, cold, wet, or windy it might be!

Date:

Astronomy

Oct. 12, 2013 Rise Set
Actual Time 7:56 AM EDT 7:05 PM EDT
Civil Twilight 7:27 AM EDT 7:34 PM EDT
Nautical Twilight 6:53 AM EDT 8:08 PM EDT
Astronomical Twilight 6:19 AM EDT 8:41 PM EDT
Moon 3:27 PM EDT (10/12) 12:44 AM EDT (10/12)
Length of Visible Light 12h 07m
Length of Day
11h 08m
First Quarter, 58% of the Moon is Illuminated
Oct 12
First Quarter
Oct 18
Full
Oct 26
Last Quarter
Nov 3
New
Nov 10
First Quarter

Hourly Weather History & Observations

Time (EDT) Temp. Dew Point Humidity Pressure Visibility Wind Dir Wind Speed Gust Speed Precip Events Conditions
12:14 AM 57.4 °F 44.6 °F 62% 30.03 in 10.0 mi SE 6.9 mph - N/A   Clear
12:34 AM 57.2 °F 44.6 °F 63% 30.02 in 10.0 mi SE 5.8 mph - N/A   Clear
12:54 AM 57.4 °F 44.6 °F 62% 30.02 in 10.0 mi SE 5.8 mph - N/A   Clear
1:14 AM 57.9 °F 44.6 °F 61% 30.02 in 10.0 mi SE 4.6 mph - N/A   Clear
1:34 AM 57.9 °F 44.6 °F 61% 30.01 in 10.0 mi SE 5.8 mph - N/A   Clear
1:54 AM 58.1 °F 45.1 °F 62% 30.01 in 10.0 mi SE 4.6 mph - N/A   Clear
2:14 AM 58.3 °F 45.7 °F 63% 30.01 in 10.0 mi SE 5.8 mph - N/A   Clear
2:34 AM 58.3 °F 46.4 °F 65% 30.01 in 10.0 mi SE 8.1 mph - N/A   Clear
2:54 AM 59.0 °F 47.7 °F 66% 30.01 in 10.0 mi SE 8.1 mph - N/A   Clear
3:14 AM 59.2 °F 48.0 °F 66% 30.01 in 10.0 mi SE 10.4 mph - N/A   Clear
3:35 AM 59.4 °F 48.2 °F 67% 30.00 in 10.0 mi SE 10.4 mph 16.1 mph N/A   Clear
3:55 AM 59.4 °F 47.5 °F 65% 30.00 in 10.0 mi SE 10.4 mph - N/A   Clear
4:15 AM 59.0 °F 46.8 °F 64% 30.00 in 10.0 mi SSE 8.1 mph - N/A   Clear
4:35 AM 58.6 °F 46.6 °F 64% 30.00 in 10.0 mi SE 10.4 mph - N/A   Clear
4:55 AM 58.6 °F 46.8 °F 65% 30.00 in 10.0 mi SSE 10.4 mph - N/A   Clear
5:15 AM 58.5 °F 46.9 °F 66% 29.99 in 10.0 mi SE 11.5 mph - N/A   Clear
5:35 AM 58.8 °F 47.3 °F 66% 29.99 in 10.0 mi SE 9.2 mph - N/A   Clear
5:56 AM 59.0 °F 47.3 °F 65% 29.99 in 10.0 mi SE 12.7 mph 18.4 mph N/A   Clear
6:16 AM 59.2 °F 46.4 °F 63% 29.99 in 10.0 mi SE 10.4 mph 17.3 mph N/A   Clear
6:36 AM 59.0 °F 45.5 °F 61% 29.99 in 10.0 mi SSE 11.5 mph 17.3 mph N/A   Clear
6:56 AM 58.8 °F 44.6 °F 59% 29.99 in 10.0 mi SE 9.2 mph - N/A   Clear
7:16 AM 58.5 °F 44.2 °F 59% 29.99 in 10.0 mi SE 8.1 mph - N/A   Clear
7:31 AM 58.1 °F 44.2 °F 60% 29.99 in 10.0 mi SE 9.2 mph - N/A   Clear
7:51 AM 58.1 °F 44.2 °F 60% 29.99 in 10.0 mi ESE 8.1 mph - N/A   Clear
8:11 AM 57.9 °F 44.6 °F 61% 30.00 in 10.0 mi ESE 8.1 mph - N/A   Clear
8:31 AM 58.3 °F 44.6 °F 60% 30.00 in 10.0 mi ESE 9.2 mph - N/A   Mostly Cloudy
8:51 AM 59.0 °F 45.0 °F 60% 30.00 in 10.0 mi SE 6.9 mph - N/A   Scattered Clouds
9:11 AM 60.1 °F 45.5 °F 59% 30.00 in 10.0 mi SE 9.2 mph - N/A   Clear
9:32 AM 61.5 °F 45.9 °F 56% 30.00 in 10.0 mi SSE 9.2 mph - N/A   Scattered Clouds
9:52 AM 62.8 °F 46.8 °F 56% 30.00 in 10.0 mi SSE 10.4 mph - N/A   Scattered Clouds
10:12 AM 64.0 °F 47.8 °F 56% 30.00 in 10.0 mi SSE 12.7 mph - N/A   Clear
10:32 AM 65.5 °F 48.9 °F 55% 30.00 in 10.0 mi SSE 15.0 mph - N/A   Clear
10:52 AM 66.7 °F 50.0 °F 55% 29.99 in 10.0 mi SSE 13.8 mph 19.6 mph N/A   Clear
11:12 AM 68.9 °F 51.6 °F 54% 29.98 in 10.0 mi SSE 12.7 mph 19.6 mph N/A   Clear
11:32 AM 69.3 °F 52.3 °F 55% 29.98 in 10.0 mi SSE 13.8 mph 20.7 mph N/A   Clear
11:52 AM 70.9 °F 53.2 °F 54% 29.98 in 10.0 mi SSE 16.1 mph 21.9 mph N/A   Clear
12:12 PM 72.0 °F 53.6 °F 52% 29.98 in 10.0 mi SSE 11.5 mph - N/A   Clear
12:33 PM 72.9 °F 54.3 °F 52% 29.98 in 10.0 mi South 11.5 mph - N/A   Clear
12:53 PM 73.4 °F 54.7 °F 52% 29.96 in 10.0 mi SSE 11.5 mph 21.9 mph N/A   Clear
1:13 PM 74.7 °F 55.6 °F 51% 29.96 in 10.0 mi South 17.3 mph 24.2 mph N/A   Clear
1:33 PM 75.4 °F 56.3 °F 51% 29.95 in 10.0 mi South 11.5 mph 21.9 mph N/A   Scattered Clouds
1:53 PM 74.1 °F 55.8 °F 53% 29.94 in 10.0 mi South 13.8 mph 18.4 mph N/A   Clear
2:13 PM 74.3 °F 56.5 °F 54% 29.94 in 10.0 mi SSW 12.7 mph 19.6 mph N/A   Mostly Cloudy
2:33 PM 74.5 °F 57.2 °F 55% 29.94 in 10.0 mi SSW 10.4 mph 19.6 mph N/A   Mostly Cloudy
2:53 PM 73.9 °F 57.4 °F 56% 29.94 in 10.0 mi SSW 11.5 mph 19.6 mph N/A   Scattered Clouds
3:14 PM 74.7 °F 56.8 °F 54% 29.93 in 10.0 mi South 11.5 mph 18.4 mph N/A   Mostly Cloudy
3:34 PM 74.7 °F 56.1 °F 52% 29.92 in 10.0 mi South 13.8 mph 24.2 mph N/A   Scattered Clouds
3:54 PM 74.3 °F 56.7 °F 54% 29.93 in 10.0 mi SSW 10.4 mph 16.1 mph N/A   Mostly Cloudy
4:14 PM 73.4 °F 56.3 °F 55% 29.93 in 10.0 mi South 9.2 mph 16.1 mph N/A   Overcast
4:34 PM 73.0 °F 56.5 °F 56% 29.93 in 10.0 mi South 12.7 mph 24.2 mph N/A   Mostly Cloudy
4:54 PM 68.4 °F 58.1 °F 70% 29.95 in 10.0 mi SW 9.2 mph - N/A   Overcast
5:14 PM 67.5 °F 57.2 °F 70% 29.98 in 10.0 mi SSW 24.2 mph 33.4 mph N/A   Overcast
5:34 PM 63.1 °F 59.5 °F 88% 29.99 in 2.5 mi South 15.0 mph 25.3 mph N/A Rain Heavy Rain
5:54 PM 62.8 °F 59.9 °F 90% 29.98 in 4.0 mi SSW 13.8 mph 23.0 mph N/A Rain Heavy Rain
6:14 PM 62.8 °F 59.9 °F 90% 29.98 in 5.0 mi South 13.8 mph 23.0 mph N/A Rain Light Rain
6:35 PM 63.0 °F 60.1 °F 90% 29.97 in 4.0 mi SSW 8.1 mph - N/A Rain Rain
6:55 PM 63.3 °F 60.1 °F 89% 29.98 in 10.0 mi South 8.1 mph - N/A Rain Light Rain
7:15 PM 63.5 °F 60.3 °F 89% 29.99 in 10.0 mi South 11.5 mph 16.1 mph N/A Rain Light Rain
7:35 PM 63.3 °F 60.4 °F 90% 29.99 in 10.0 mi South 9.2 mph - N/A Rain Light Rain
7:55 PM 63.1 °F 60.1 °F 90% 29.99 in 10.0 mi South 8.1 mph - N/A   Overcast
8:15 PM 63.1 °F 60.1 °F 90% 29.99 in 10.0 mi South 9.2 mph - N/A   Overcast
8:35 PM 63.1 °F 60.1 °F 90% 30.00 in 10.0 mi South 6.9 mph - N/A   Overcast
8:55 PM 63.0 °F 59.9 °F 90% 30.00 in 10.0 mi South 10.4 mph - N/A   Overcast
9:16 PM 63.1 °F 60.1 °F 90% 30.01 in 10.0 mi SW 5.8 mph - N/A   Overcast
9:36 PM 63.1 °F 59.9 °F 89% 30.02 in 10.0 mi SW 11.5 mph 17.3 mph N/A   Overcast
9:56 PM 62.4 °F 59.0 °F 89% 30.03 in 10.0 mi SW 9.2 mph - N/A   Mostly Cloudy
10:16 PM 61.5 °F 54.7 °F 78% 30.03 in 10.0 mi WSW 9.2 mph - N/A   Scattered Clouds
10:36 PM 61.2 °F 49.8 °F 66% 30.04 in 10.0 mi West 8.1 mph - N/A   Clear
10:56 PM 60.4 °F 48.4 °F 64% 30.05 in 10.0 mi West 10.4 mph - N/A   Clear
11:16 PM 59.9 °F 47.8 °F 64% 30.06 in 10.0 mi West 8.1 mph - N/A   Clear
11:31 PM 59.5 °F 48.2 °F 66% 30.06 in 10.0 mi West 10.4 mph 18.4 mph N/A   Clear
11:51 PM 59.2 °F 47.3 °F 65% 30.07 in 10.0 mi West 10.4 mph 16.1 mph N/A   Clear